createdAt,value
2018-11-02T00:03:56.346Z,14.10
2018-11-02T00:08:48.969Z,13.57
2018-11-02T00:13:41.735Z,14.93
2018-11-02T00:18:34.344Z,14.63
2018-11-02T00:23:26.960Z,14.30
2018-11-02T00:28:19.573Z,13.70
2018-11-02T00:33:12.182Z,16.70
2018-11-02T00:38:05.691Z,15.77
2018-11-02T00:42:58.332Z,13.13
2018-11-02T00:47:50.971Z,16.53
2018-11-02T00:52:43.649Z,21.37
2018-11-02T00:57:36.281Z,17.40
2018-11-02T01:02:35.678Z,12.77
2018-11-02T01:07:28.350Z,11.67
2018-11-02T01:12:21.007Z,13.87
2018-11-02T01:17:13.648Z,19.27
2018-11-02T01:22:09.085Z,16.33
2018-11-02T01:27:01.720Z,13.83
2018-11-02T01:31:54.788Z,14.70
2018-11-02T01:36:47.434Z,14.63
2018-11-02T01:41:40.145Z,15.77
2018-11-02T01:46:32.907Z,15.07
2018-11-02T01:51:25.547Z,14.67
2018-11-02T01:56:18.193Z,13.67
2018-11-02T02:01:10.885Z,13.87
2018-11-02T02:06:03.852Z,15.07
2018-11-02T02:10:56.461Z,16.47
2018-11-02T02:15:49.181Z,18.17
2018-11-02T02:20:41.957Z,14.40
2018-11-02T02:25:34.688Z,15.00
2018-11-02T02:30:27.311Z,17.40
2018-11-02T02:35:19.929Z,14.73
2018-11-02T02:40:12.791Z,16.17
2018-11-02T02:45:06.380Z,17.77
2018-11-02T02:49:59.033Z,13.80
2018-11-02T02:54:51.661Z,18.67
2018-11-02T02:59:44.252Z,14.57
2018-11-02T03:04:36.997Z,15.40
2018-11-02T03:09:29.602Z,16.07
2018-11-02T03:14:22.340Z,11.93
2018-11-02T03:19:14.977Z,15.17
2018-11-02T03:24:07.694Z,16.57
2018-11-02T03:29:00.361Z,12.87
2018-11-02T03:33:52.991Z,15.20
2018-11-02T03:38:45.649Z,12.93
2018-11-02T03:43:38.501Z,13.30
2018-11-02T03:48:31.143Z,13.30
2018-11-02T03:53:23.949Z,14.87
2018-11-02T03:58:16.749Z,14.90
2018-11-02T04:03:09.376Z,12.90
2018-11-02T04:08:02.045Z,12.30
2018-11-02T04:12:54.696Z,13.03
2018-11-02T04:17:47.321Z,13.03
2018-11-02T04:22:40.008Z,14.90
2018-11-02T04:27:32.695Z,16.27
2018-11-02T04:32:25.315Z,13.50
2018-11-02T04:37:17.961Z,15.27
2018-11-02T04:42:10.639Z,14.10
2018-11-02T04:47:03.333Z,13.20
2018-11-02T04:51:55.964Z,12.53
2018-11-02T04:56:48.614Z,11.07
2018-11-02T05:01:41.320Z,11.27
2018-11-02T05:06:34.012Z,12.37
2018-11-02T05:11:26.711Z,12.03
2018-11-02T05:16:19.481Z,12.13
2018-11-02T05:21:12.116Z,11.10
2018-11-02T05:26:05.142Z,11.10
2018-11-02T05:30:57.808Z,12.77
2018-11-02T05:35:50.448Z,13.40
2018-11-02T05:40:43.253Z,18.67
2018-11-02T05:45:35.929Z,12.43
2018-11-02T05:50:28.653Z,12.80
2018-11-02T05:55:21.357Z,12.17
2018-11-02T06:00:14.070Z,13.17
2018-11-02T06:05:06.823Z,13.63
2018-11-02T06:09:59.564Z,14.93
2018-11-02T06:14:52.247Z,15.30
2018-11-02T06:19:44.839Z,13.50
2018-11-02T06:24:37.658Z,12.40
2018-11-02T06:29:30.370Z,14.93
2018-11-02T06:34:24.381Z,11.70
2018-11-02T06:39:17.507Z,11.40
2018-11-02T06:44:10.615Z,19.23
2018-11-02T06:49:03.297Z,13.70
2018-11-02T06:53:55.910Z,14.33
2018-11-02T06:58:48.558Z,12.43
2018-11-02T07:03:41.185Z,14.40
2018-11-02T07:08:33.891Z,11.83
2018-11-02T07:13:26.549Z,10.70
2018-11-02T07:18:19.294Z,12.73
2018-11-02T07:23:11.882Z,9.87
2018-11-02T07:28:05.458Z,12.90
2018-11-02T07:32:58.143Z,13.80
2018-11-02T07:37:50.839Z,14.57
2018-11-02T07:42:43.503Z,10.33
2018-11-02T07:47:36.244Z,13.57
2018-11-02T07:52:28.902Z,12.87
2018-11-02T07:57:21.550Z,11.97
2018-11-02T08:02:14.173Z,10.50
2018-11-02T08:07:07.091Z,14.23
2018-11-02T08:11:59.739Z,10.60
2018-11-02T08:16:52.473Z,12.07
2018-11-02T08:21:45.090Z,12.33
2018-11-02T08:26:37.897Z,9.63
2018-11-02T08:31:30.534Z,9.60
2018-11-02T08:36:23.134Z,13.03
2018-11-02T08:41:15.798Z,12.37
2018-11-02T08:46:08.483Z,9.33
2018-11-02T08:51:01.174Z,16.57
2018-11-02T08:55:53.837Z,10.83
2018-11-02T09:00:46.494Z,11.50
2018-11-02T09:05:39.281Z,13.57
2018-11-02T09:10:32.134Z,15.27
2018-11-02T09:15:24.772Z,11.20
2018-11-02T09:20:17.453Z,9.53
2018-11-02T09:25:10.171Z,10.10
2018-11-02T09:30:02.934Z,11.73
2018-11-02T09:34:55.550Z,10.70
2018-11-02T09:39:48.247Z,11.50
2018-11-02T09:44:41.104Z,9.67
2018-11-02T09:49:33.869Z,9.73
2018-11-02T09:54:26.508Z,9.80
2018-11-02T09:59:19.287Z,9.60
2018-11-02T10:04:12.118Z,9.93
2018-11-02T10:09:08.168Z,9.57
2018-11-02T10:14:00.895Z,11.50
2018-11-02T10:18:53.642Z,14.40
2018-11-02T10:23:46.374Z,7.07
2018-11-02T10:28:39.044Z,7.70
2018-11-02T10:33:31.862Z,9.57
2018-11-02T10:38:24.605Z,7.63
2018-11-02T10:43:18.072Z,9.77
2018-11-02T10:48:10.781Z,7.37
2018-11-02T10:53:03.647Z,6.27
2018-11-02T10:57:56.426Z,6.67
2018-11-02T11:02:49.149Z,7.93
2018-11-02T11:07:41.981Z,7.53
2018-11-02T11:12:34.824Z,8.20
2018-11-02T11:17:27.294Z,6.83
2018-11-02T11:22:19.951Z,6.67
2018-11-02T11:27:12.676Z,6.40
2018-11-02T11:32:05.599Z,6.50
2018-11-02T11:36:58.280Z,5.13
2018-11-02T11:41:50.955Z,5.80
2018-11-02T11:46:43.598Z,5.30
2018-11-02T11:51:36.294Z,6.53
2018-11-02T11:56:29.057Z,6.67
2018-11-02T12:01:21.801Z,3.97
2018-11-02T12:06:14.625Z,8.07
2018-11-02T12:11:07.301Z,5.63
2018-11-02T12:15:59.965Z,7.50
2018-11-02T12:20:52.530Z,4.83
2018-11-02T12:25:45.213Z,5.03
2018-11-02T12:30:37.912Z,4.37
2018-11-02T12:35:30.706Z,4.63
2018-11-02T12:40:23.886Z,4.03
2018-11-02T12:45:17.721Z,5.10
2018-11-02T12:50:16.970Z,3.93
2018-11-02T12:55:10.175Z,4.27
2018-11-02T13:00:02.961Z,5.83
2018-11-02T13:04:55.614Z,5.03
2018-11-02T13:09:48.282Z,5.93
2018-11-02T13:14:40.901Z,4.30
2018-11-02T13:19:33.602Z,4.33
2018-11-02T13:24:26.284Z,5.47
2018-11-02T13:29:18.966Z,6.37
2018-11-02T13:34:11.654Z,4.97
2018-11-02T13:39:08.501Z,5.43
2018-11-02T13:44:01.216Z,5.20
2018-11-02T13:48:53.914Z,3.97
2018-11-02T13:53:46.822Z,5.07
2018-11-02T13:58:39.553Z,4.77
2018-11-02T14:03:32.218Z,4.10
2018-11-02T14:08:24.878Z,5.77
2018-11-02T14:13:17.801Z,5.80
2018-11-02T14:18:10.499Z,5.00
2018-11-02T14:23:03.384Z,7.40
2018-11-02T14:27:56.049Z,4.10
2018-11-02T14:32:48.913Z,4.97
2018-11-02T14:37:41.545Z,4.80
2018-11-02T14:42:34.309Z,3.70
2018-11-02T14:47:27.095Z,3.20
2018-11-02T14:52:19.917Z,6.90
2018-11-02T14:57:12.515Z,4.43
2018-11-02T15:02:05.314Z,4.23
2018-11-02T15:06:57.970Z,4.37
2018-11-02T15:11:50.746Z,3.60
2018-11-02T15:16:43.496Z,3.10
2018-11-02T15:21:36.302Z,6.80
2018-11-02T15:26:29.048Z,4.77
2018-11-02T15:31:21.663Z,5.83
2018-11-02T15:36:14.248Z,4.47
2018-11-02T15:41:06.969Z,8.43
2018-11-02T15:45:59.682Z,6.17
2018-11-02T15:50:52.324Z,8.73
2018-11-02T15:55:44.932Z,6.47
2018-11-02T16:00:37.554Z,7.50
2018-11-02T16:05:30.258Z,5.83
2018-11-02T16:10:22.874Z,8.40
2018-11-02T16:15:15.527Z,10.37
2018-11-02T16:20:10.831Z,6.43
2018-11-02T16:25:03.570Z,8.33
2018-11-02T16:29:56.211Z,9.93
2018-11-02T16:34:48.825Z,8.93
2018-11-02T16:39:41.882Z,7.83
2018-11-02T16:44:34.574Z,8.93
2018-11-02T16:49:27.205Z,6.50
2018-11-02T16:54:19.856Z,8.17
2018-11-02T16:59:12.609Z,6.27
2018-11-02T17:04:05.182Z,7.10
2018-11-02T17:08:57.788Z,5.60
2018-11-02T17:13:50.491Z,6.37
2018-11-02T17:18:43.236Z,4.90
2018-11-02T17:23:35.864Z,5.27
2018-11-02T17:28:28.497Z,11.07
2018-11-02T17:33:21.652Z,8.03
2018-11-02T17:38:14.369Z,9.93
2018-11-02T17:43:07.072Z,9.47
2018-11-02T17:47:59.717Z,8.80
2018-11-02T17:52:52.333Z,16.83
2018-11-02T17:57:44.893Z,16.73
2018-11-02T18:02:37.493Z,16.60
2018-11-02T18:07:30.146Z,11.50
2018-11-02T18:12:22.880Z,8.13
2018-11-02T18:17:15.789Z,8.53
2018-11-02T18:22:08.517Z,7.70
2018-11-02T18:27:01.389Z,11.00
2018-11-02T18:31:54.082Z,12.23
2018-11-02T18:36:46.796Z,10.30
2018-11-02T18:41:39.708Z,12.70
2018-11-02T18:46:32.340Z,12.53
2018-11-02T18:51:24.974Z,13.30
2018-11-02T18:56:17.729Z,12.43
2018-11-02T19:01:10.381Z,13.33
2018-11-02T19:06:03.015Z,10.87
2018-11-02T19:10:55.674Z,13.93
2018-11-02T19:15:48.468Z,14.83
2018-11-02T19:20:41.024Z,14.77
2018-11-02T19:25:33.688Z,16.97
2018-11-02T19:30:26.362Z,16.67
2018-11-02T19:35:19.136Z,20.83
2018-11-02T19:40:12.970Z,13.93
2018-11-02T19:45:06.648Z,12.23
2018-11-02T19:49:59.265Z,14.33
2018-11-02T19:54:52.668Z,13.47
2018-11-02T19:59:47.010Z,15.17
2018-11-02T20:04:40.244Z,21.07
2018-11-02T20:09:33.536Z,15.47
2018-11-02T20:14:27.226Z,23.27
2018-11-02T20:19:20.343Z,19.20
2018-11-02T20:24:13.529Z,26.20
2018-11-02T20:29:10.639Z,18.13
2018-11-02T20:34:06.150Z,19.77
2018-11-02T20:38:59.525Z,14.97
2018-11-02T20:43:52.731Z,12.53
2018-11-02T20:48:45.866Z,13.40
2018-11-02T20:53:38.948Z,15.70
2018-11-02T20:58:32.072Z,17.47
2018-11-02T21:03:25.807Z,19.70
2018-11-02T21:08:18.932Z,21.40
2018-11-02T21:13:11.884Z,19.60
2018-11-02T21:18:05.726Z,21.60
2018-11-02T21:22:59.642Z,24.40
2018-11-02T21:27:52.652Z,24.80
2018-11-02T21:32:56.538Z,23.47
2018-11-02T21:37:49.828Z,22.17
2018-11-02T21:42:42.818Z,22.58
2018-11-02T21:47:35.888Z,19.77
2018-11-02T21:52:28.855Z,21.40
2018-11-02T21:57:21.758Z,24.30
2018-11-02T22:02:15.520Z,23.07
2018-11-02T22:07:08.245Z,21.00
2018-11-02T22:12:00.934Z,21.13
2018-11-02T22:16:53.905Z,21.30
2018-11-02T22:21:46.753Z,22.97
2018-11-02T22:26:39.501Z,19.33
2018-11-02T22:31:32.183Z,21.53
2018-11-02T22:36:24.927Z,19.90
2018-11-02T22:41:17.614Z,15.93
2018-11-02T22:46:10.535Z,15.60
2018-11-02T22:51:03.215Z,16.57
2018-11-02T22:55:55.807Z,21.40
2018-11-02T23:00:54.407Z,18.23
2018-11-02T23:05:47.125Z,17.30
2018-11-02T23:10:39.718Z,17.40
2018-11-02T23:15:32.375Z,23.77
2018-11-02T23:20:25.089Z,22.53
2018-11-02T23:25:17.773Z,24.93
2018-11-02T23:30:10.820Z,19.33
2018-11-02T23:35:03.407Z,20.00
2018-11-02T23:39:56.130Z,18.60
2018-11-02T23:44:48.957Z,19.43
2018-11-02T23:49:41.555Z,20.17
2018-11-02T23:54:34.280Z,18.10
2018-11-02T23:59:26.974Z,19.30
